KSEM

Craig Field Airport

Selma, Alabama, USA
METAR KSEM 230535Z AUTO 00000KT 10SM CLR 15/12 A3018 RMK AO2
Observed Flight Rules
Oct-23 @ 05:35 UTC (6 minutes ago) Visual Flight Rules
Visibility Clouds
10 miles
  • Clear skies
Temperatures Readings
Current 15°C / 59°F
Dewpoint 12°C / 54°F
Humidity 82%
Altimeter 30.18" Hg
Pressure 1022 hPa
Elevation 51
METAR KSEM 230535Z AUTO 00000KT 10SM CLR 15/12 A3018 RMK AO2
Observed Flight Rules
Oct-23 @ 05:35 UTC
(6 minutes ago)
VFR
Clouds
  • Clear skies
Temperature Dewpoint
15°C / 59°F 12°C / 54°F
Humidity Altimeter Pressure
82% 30.18" Hg 1022 hPa